sensor_id;sensor_type;location;lat;lon;timestamp;temperature;humidity
19292;DHT22;9779;51.756;7.450;2022-10-31T00:00:26;14.30;99.90
19292;DHT22;9779;51.756;7.450;2022-10-31T00:02:52;14.20;99.90
19292;DHT22;9779;51.756;7.450;2022-10-31T00:05:17;14.20;99.90
19292;DHT22;9779;51.756;7.450;2022-10-31T00:07:43;14.20;99.90
19292;DHT22;9779;51.756;7.450;2022-10-31T00:10:09;14.20;99.90
19292;DHT22;9779;51.756;7.450;2022-10-31T00:12:34;14.20;99.90
19292;DHT22;9779;51.756;7.450;2022-10-31T00:15:00;14.30;99.90
19292;DHT22;9779;51.756;7.450;2022-10-31T00:17:25;14.20;99.90
19292;DHT22;9779;51.756;7.450;2022-10-31T00:19:51;14.20;99.90
19292;DHT22;9779;51.756;7.450;2022-10-31T00:22:16;14.30;99.90
19292;DHT22;9779;51.756;7.450;2022-10-31T00:24:42;14.30;99.90
19292;DHT22;9779;51.756;7.450;2022-10-31T00:27:07;14.20;99.90
19292;DHT22;9779;51.756;7.450;2022-10-31T00:29:33;14.20;99.90
19292;DHT22;9779;51.756;7.450;2022-10-31T00:31:58;14.30;99.90
19292;DHT22;9779;51.756;7.450;2022-10-31T00:34:24;14.20;99.90
19292;DHT22;9779;51.756;7.450;2022-10-31T00:36:50;14.20;99.90
19292;DHT22;9779;51.756;7.450;2022-10-31T00:39:15;14.30;99.90
19292;DHT22;9779;51.756;7.450;2022-10-31T00:41:41;14.20;99.90
19292;DHT22;9779;51.756;7.450;2022-10-31T00:44:07;14.20;99.90
19292;DHT22;9779;51.756;7.450;2022-10-31T00:46:32;14.20;99.90
19292;DHT22;9779;51.756;7.450;2022-10-31T00:48:58;14.20;99.90
19292;DHT22;9779;51.756;7.450;2022-10-31T00:51:23;14.10;99.90
19292;DHT22;9779;51.756;7.450;2022-10-31T00:53:49;14.10;99.90
19292;DHT22;9779;51.756;7.450;2022-10-31T00:56:14;14.10;99.90
19292;DHT22;9779;51.756;7.450;2022-10-31T00:58:40;14.10;99.90
19292;DHT22;9779;51.756;7.450;2022-10-31T01:01:05;14.10;99.90
19292;DHT22;9779;51.756;7.450;2022-10-31T01:03:32;14.00;99.90
19292;DHT22;9779;51.756;7.450;2022-10-31T01:06:07;14.00;99.90
19292;DHT22;9779;51.756;7.450;2022-10-31T01:08:34;14.00;99.90
19292;DHT22;9779;51.756;7.450;2022-10-31T01:11:03;14.00;99.90
19292;DHT22;9779;51.756;7.450;2022-10-31T01:13:29;13.90;99.90
19292;DHT22;9779;51.756;7.450;2022-10-31T01:15:56;13.90;99.90
19292;DHT22;9779;51.756;7.450;2022-10-31T01:18:22;13.90;99.90
19292;DHT22;9779;51.756;7.450;2022-10-31T01:20:57;13.90;99.90
19292;DHT22;9779;51.756;7.450;2022-10-31T01:23:23;13.90;99.90
19292;DHT22;9779;51.756;7.450;2022-10-31T01:25:48;13.90;99.90
19292;DHT22;9779;51.756;7.450;2022-10-31T01:28:14;13.90;99.90
19292;DHT22;9779;51.756;7.450;2022-10-31T01:30:39;13.90;99.90
19292;DHT22;9779;51.756;7.450;2022-10-31T01:33:05;13.90;99.90
19292;DHT22;9779;51.756;7.450;2022-10-31T01:35:30;13.90;99.90
19292;DHT22;9779;51.756;7.450;2022-10-31T01:37:55;13.90;99.90
19292;DHT22;9779;51.756;7.450;2022-10-31T01:40:21;13.90;99.90
19292;DHT22;9779;51.756;7.450;2022-10-31T01:42:46;13.90;99.90
19292;DHT22;9779;51.756;7.450;2022-10-31T01:45:20;13.90;99.90
19292;DHT22;9779;51.756;7.450;2022-10-31T01:47:47;13.90;99.90
19292;DHT22;9779;51.756;7.450;2022-10-31T01:50:26;13.90;99.90
19292;DHT22;9779;51.756;7.450;2022-10-31T01:52:53;13.80;99.90
19292;DHT22;9779;51.756;7.450;2022-10-31T01:55:35;13.80;99.90
19292;DHT22;9779;51.756;7.450;2022-10-31T01:58:11;13.80;99.90
19292;DHT22;9779;51.756;7.450;2022-10-31T02:00:39;13.70;99.90
19292;DHT22;9779;51.756;7.450;2022-10-31T02:03:05;13.70;99.90
19292;DHT22;9779;51.756;7.450;2022-10-31T02:05:32;13.60;99.90
19292;DHT22;9779;51.756;7.450;2022-10-31T02:10:47;13.60;99.90
19292;DHT22;9779;51.756;7.450;2022-10-31T02:13:12;13.60;99.90
19292;DHT22;9779;51.756;7.450;2022-10-31T02:15:40;13.60;99.90
19292;DHT22;9779;51.756;7.450;2022-10-31T02:18:07;13.50;99.90
19292;DHT22;9779;51.756;7.450;2022-10-31T02:20:48;13.50;99.90
19292;DHT22;9779;51.756;7.450;2022-10-31T02:26:41;13.50;99.90
19292;DHT22;9779;51.756;7.450;2022-10-31T02:32:29;13.40;99.90
19292;DHT22;9779;51.756;7.450;2022-10-31T02:40:33;13.30;99.90
19292;DHT22;9779;51.756;7.450;2022-10-31T02:43:16;13.30;99.90
19292;DHT22;9779;51.756;7.450;2022-10-31T02:48:19;13.30;99.90
19292;DHT22;9779;51.756;7.450;2022-10-31T02:50:50;13.20;99.90
19292;DHT22;9779;51.756;7.450;2022-10-31T02:53:17;13.20;99.90
19292;DHT22;9779;51.756;7.450;2022-10-31T02:55:51;13.20;99.90
19292;DHT22;9779;51.756;7.450;2022-10-31T02:58:21;13.10;99.90
19292;DHT22;9779;51.756;7.450;2022-10-31T03:03:29;13.00;99.90
19292;DHT22;9779;51.756;7.450;2022-10-31T03:11:08;13.00;99.90
19292;DHT22;9779;51.756;7.450;2022-10-31T03:14:08;12.90;99.90
19292;DHT22;9779;51.756;7.450;2022-10-31T03:16:43;12.90;99.90
19292;DHT22;9779;51.756;7.450;2022-10-31T03:19:34;12.90;99.90
19292;DHT22;9779;51.756;7.450;2022-10-31T03:24:38;12.80;99.90
19292;DHT22;9779;51.756;7.450;2022-10-31T03:27:06;12.80;99.90
19292;DHT22;9779;51.756;7.450;2022-10-31T03:29:36;12.80;99.90
19292;DHT22;9779;51.756;7.450;2022-10-31T03:32:08;12.80;99.90
19292;DHT22;9779;51.756;7.450;2022-10-31T03:34:37;12.70;99.90
19292;DHT22;9779;51.756;7.450;2022-10-31T03:37:07;12.70;99.90
19292;DHT22;9779;51.756;7.450;2022-10-31T03:39:36;12.70;99.90
19292;DHT22;9779;51.756;7.450;2022-10-31T03:42:18;12.60;99.90
19292;DHT22;9779;51.756;7.450;2022-10-31T03:44:53;12.60;99.90
19292;DHT22;9779;51.756;7.450;2022-10-31T03:47:21;12.60;99.90
19292;DHT22;9779;51.756;7.450;2022-10-31T03:49:47;12.60;99.90
19292;DHT22;9779;51.756;7.450;2022-10-31T03:52:44;12.50;99.90
19292;DHT22;9779;51.756;7.450;2022-10-31T03:55:23;12.50;99.90
19292;DHT22;9779;51.756;7.450;2022-10-31T03:57:54;12.50;99.90
19292;DHT22;9779;51.756;7.450;2022-10-31T04:00:23;12.50;99.90
19292;DHT22;9779;51.756;7.450;2022-10-31T04:05:32;12.40;99.90
19292;DHT22;9779;51.756;7.450;2022-10-31T04:07:59;12.30;99.90
19292;DHT22;9779;51.756;7.450;2022-10-31T04:10:26;12.30;99.90
19292;DHT22;9779;51.756;7.450;2022-10-31T04:12:58;12.30;99.90
19292;DHT22;9779;51.756;7.450;2022-10-31T04:15:26;12.30;99.90
19292;DHT22;9779;51.756;7.450;2022-10-31T04:17:55;12.30;99.90
19292;DHT22;9779;51.756;7.450;2022-10-31T04:20:33;12.20;99.90
19292;DHT22;9779;51.756;7.450;2022-10-31T04:22:59;12.20;99.90
19292;DHT22;9779;51.756;7.450;2022-10-31T04:25:25;12.20;99.90
19292;DHT22;9779;51.756;7.450;2022-10-31T04:27:51;12.20;99.90
19292;DHT22;9779;51.756;7.450;2022-10-31T04:30:16;12.20;99.90
19292;DHT22;9779;51.756;7.450;2022-10-31T04:35:08;12.20;99.90
19292;DHT22;9779;51.756;7.450;2022-10-31T04:37:33;12.10;99.90
19292;DHT22;9779;51.756;7.450;2022-10-31T04:39:59;12.10;99.90
19292;DHT22;9779;51.756;7.450;2022-10-31T04:42:24;12.10;99.90
19292;DHT22;9779;51.756;7.450;2022-10-31T04:44:50;12.10;99.90
19292;DHT22;9779;51.756;7.450;2022-10-31T04:47:15;12.00;99.90
19292;DHT22;9779;51.756;7.450;2022-10-31T04:49:41;11.90;99.90
19292;DHT22;9779;51.756;7.450;2022-10-31T04:52:06;11.90;99.90
19292;DHT22;9779;51.756;7.450;2022-10-31T04:54:33;11.90;99.90
19292;DHT22;9779;51.756;7.450;2022-10-31T04:56:59;11.90;99.90
19292;DHT22;9779;51.756;7.450;2022-10-31T04:59:24;11.90;99.90
19292;DHT22;9779;51.756;7.450;2022-10-31T05:01:50;11.90;99.90
19292;DHT22;9779;51.756;7.450;2022-10-31T05:04:15;11.80;99.90
19292;DHT22;9779;51.756;7.450;2022-10-31T05:06:41;11.80;99.90
19292;DHT22;9779;51.756;7.450;2022-10-31T05:09:06;11.80;99.90
19292;DHT22;9779;51.756;7.450;2022-10-31T05:11:32;11.80;99.90
19292;DHT22;9779;51.756;7.450;2022-10-31T05:13:57;11.80;99.90
19292;DHT22;9779;51.756;7.450;2022-10-31T05:16:23;11.80;99.90
19292;DHT22;9779;51.756;7.450;2022-10-31T05:18:48;11.80;99.90
19292;DHT22;9779;51.756;7.450;2022-10-31T05:21:14;11.80;99.90
19292;DHT22;9779;51.756;7.450;2022-10-31T05:23:39;11.70;99.90
19292;DHT22;9779;51.756;7.450;2022-10-31T05:26:05;11.70;99.90
19292;DHT22;9779;51.756;7.450;2022-10-31T05:28:30;11.70;99.90
19292;DHT22;9779;51.756;7.450;2022-10-31T05:30:56;11.70;99.90
19292;DHT22;9779;51.756;7.450;2022-10-31T05:33:21;11.70;99.90
19292;DHT22;9779;51.756;7.450;2022-10-31T05:35:47;11.60;99.90
19292;DHT22;9779;51.756;7.450;2022-10-31T05:38:13;11.60;99.90
19292;DHT22;9779;51.756;7.450;2022-10-31T05:40:38;11.60;99.90
19292;DHT22;9779;51.756;7.450;2022-10-31T05:43:04;11.60;99.90
19292;DHT22;9779;51.756;7.450;2022-10-31T05:45:30;11.60;99.90
19292;DHT22;9779;51.756;7.450;2022-10-31T05:48:00;11.60;99.90
19292;DHT22;9779;51.756;7.450;2022-10-31T05:50:27;11.50;99.90
19292;DHT22;9779;51.756;7.450;2022-10-31T05:53:04;11.50;99.90
19292;DHT22;9779;51.756;7.450;2022-10-31T05:55:31;11.50;99.90
19292;DHT22;9779;51.756;7.450;2022-10-31T05:57:57;11.50;99.90
19292;DHT22;9779;51.756;7.450;2022-10-31T06:00:23;11.50;99.90
19292;DHT22;9779;51.756;7.450;2022-10-31T06:02:49;11.40;99.90
19292;DHT22;9779;51.756;7.450;2022-10-31T06:05:15;11.40;99.90
19292;DHT22;9779;51.756;7.450;2022-10-31T06:07:42;11.40;99.90
19292;DHT22;9779;51.756;7.450;2022-10-31T06:10:08;11.40;99.90
19292;DHT22;9779;51.756;7.450;2022-10-31T06:12:35;11.40;99.90
19292;DHT22;9779;51.756;7.450;2022-10-31T06:15:04;11.40;99.90
19292;DHT22;9779;51.756;7.450;2022-10-31T06:17:30;11.40;99.90
19292;DHT22;9779;51.756;7.450;2022-10-31T06:19:56;11.30;99.90
19292;DHT22;9779;51.756;7.450;2022-10-31T06:22:21;11.30;99.90
19292;DHT22;9779;51.756;7.450;2022-10-31T06:24:47;11.30;99.90
19292;DHT22;9779;51.756;7.450;2022-10-31T06:27:12;11.30;99.90
19292;DHT22;9779;51.756;7.450;2022-10-31T06:29:38;11.30;99.90
19292;DHT22;9779;51.756;7.450;2022-10-31T06:32:03;11.30;99.90
19292;DHT22;9779;51.756;7.450;2022-10-31T06:34:29;11.30;99.90
19292;DHT22;9779;51.756;7.450;2022-10-31T06:36:55;11.30;99.90
19292;DHT22;9779;51.756;7.450;2022-10-31T06:39:20;11.30;99.90
19292;DHT22;9779;51.756;7.450;2022-10-31T06:41:47;11.30;99.90
19292;DHT22;9779;51.756;7.450;2022-10-31T06:44:13;11.20;99.90
19292;DHT22;9779;51.756;7.450;2022-10-31T06:46:39;11.20;99.90
19292;DHT22;9779;51.756;7.450;2022-10-31T06:49:04;11.20;99.90
19292;DHT22;9779;51.756;7.450;2022-10-31T06:51:30;11.20;99.90
19292;DHT22;9779;51.756;7.450;2022-10-31T06:53:55;11.20;99.90
19292;DHT22;9779;51.756;7.450;2022-10-31T06:56:21;11.20;99.90
19292;DHT22;9779;51.756;7.450;2022-10-31T06:58:46;11.20;99.90
19292;DHT22;9779;51.756;7.450;2022-10-31T07:01:12;11.20;99.90
19292;DHT22;9779;51.756;7.450;2022-10-31T07:03:37;11.30;99.90
19292;DHT22;9779;51.756;7.450;2022-10-31T07:06:03;11.30;99.90
19292;DHT22;9779;51.756;7.450;2022-10-31T07:08:28;11.30;99.90
19292;DHT22;9779;51.756;7.450;2022-10-31T07:10:56;11.30;99.90
19292;DHT22;9779;51.756;7.450;2022-10-31T07:13:22;11.30;99.90
19292;DHT22;9779;51.756;7.450;2022-10-31T07:15:52;11.30;99.90
19292;DHT22;9779;51.756;7.450;2022-10-31T07:18:19;11.30;99.90
19292;DHT22;9779;51.756;7.450;2022-10-31T07:20:44;11.30;99.90
19292;DHT22;9779;51.756;7.450;2022-10-31T07:23:10;11.30;99.90
19292;DHT22;9779;51.756;7.450;2022-10-31T07:25:37;11.40;99.90
19292;DHT22;9779;51.756;7.450;2022-10-31T07:28:03;11.40;99.90
19292;DHT22;9779;51.756;7.450;2022-10-31T07:30:28;11.40;99.90
19292;DHT22;9779;51.756;7.450;2022-10-31T07:32:54;11.40;99.90
19292;DHT22;9779;51.756;7.450;2022-10-31T07:35:25;11.40;99.90
19292;DHT22;9779;51.756;7.450;2022-10-31T07:37:52;11.40;99.90
19292;DHT22;9779;51.756;7.450;2022-10-31T07:40:18;11.50;99.90
19292;DHT22;9779;51.756;7.450;2022-10-31T07:42:47;11.50;99.90
19292;DHT22;9779;51.756;7.450;2022-10-31T07:45:17;11.50;99.90
19292;DHT22;9779;51.756;7.450;2022-10-31T07:47:51;11.50;99.90
19292;DHT22;9779;51.756;7.450;2022-10-31T07:50:22;11.50;99.90
19292;DHT22;9779;51.756;7.450;2022-10-31T07:52:48;11.50;99.90
19292;DHT22;9779;51.756;7.450;2022-10-31T07:55:14;11.50;99.90
19292;DHT22;9779;51.756;7.450;2022-10-31T07:57:39;11.50;99.90
19292;DHT22;9779;51.756;7.450;2022-10-31T08:00:07;11.60;99.90
19292;DHT22;9779;51.756;7.450;2022-10-31T08:02:33;11.50;99.90
19292;DHT22;9779;51.756;7.450;2022-10-31T08:04:59;11.90;99.90
19292;DHT22;9779;51.756;7.450;2022-10-31T08:07:25;12.30;99.90
19292;DHT22;9779;51.756;7.450;2022-10-31T08:09:51;12.60;99.90
19292;DHT22;9779;51.756;7.450;2022-10-31T08:12:17;12.70;99.90
19292;DHT22;9779;51.756;7.450;2022-10-31T08:14:42;12.70;99.90
19292;DHT22;9779;51.756;7.450;2022-10-31T08:17:09;12.80;99.90
19292;DHT22;9779;51.756;7.450;2022-10-31T08:19:35;12.80;99.90
19292;DHT22;9779;51.756;7.450;2022-10-31T08:22:00;12.90;99.90
19292;DHT22;9779;51.756;7.450;2022-10-31T08:24:26;12.90;99.90
19292;DHT22;9779;51.756;7.450;2022-10-31T08:26:52;13.00;99.90
19292;DHT22;9779;51.756;7.450;2022-10-31T08:29:17;13.10;99.90
19292;DHT22;9779;51.756;7.450;2022-10-31T08:31:43;13.20;99.90
19292;DHT22;9779;51.756;7.450;2022-10-31T08:34:09;13.00;99.90
19292;DHT22;9779;51.756;7.450;2022-10-31T08:36:34;12.80;99.90
19292;DHT22;9779;51.756;7.450;2022-10-31T08:39:00;12.80;99.90
19292;DHT22;9779;51.756;7.450;2022-10-31T08:41:26;12.70;99.90
19292;DHT22;9779;51.756;7.450;2022-10-31T08:43:51;12.70;99.90
19292;DHT22;9779;51.756;7.450;2022-10-31T08:46:18;12.70;99.90
19292;DHT22;9779;51.756;7.450;2022-10-31T08:48:43;12.60;99.90
19292;DHT22;9779;51.756;7.450;2022-10-31T08:51:10;12.60;99.90
19292;DHT22;9779;51.756;7.450;2022-10-31T08:53:36;12.60;99.90
19292;DHT22;9779;51.756;7.450;2022-10-31T08:56:01;12.80;99.90
19292;DHT22;9779;51.756;7.450;2022-10-31T08:58:27;12.80;99.90
19292;DHT22;9779;51.756;7.450;2022-10-31T09:00:54;12.80;99.90
19292;DHT22;9779;51.756;7.450;2022-10-31T09:03:26;12.80;99.90
19292;DHT22;9779;51.756;7.450;2022-10-31T09:05:57;12.80;99.90
19292;DHT22;9779;51.756;7.450;2022-10-31T09:08:23;12.90;99.90
19292;DHT22;9779;51.756;7.450;2022-10-31T09:10:49;12.90;99.90
19292;DHT22;9779;51.756;7.450;2022-10-31T09:13:17;12.90;99.90
19292;DHT22;9779;51.756;7.450;2022-10-31T09:15:46;12.90;99.90
19292;DHT22;9779;51.756;7.450;2022-10-31T09:18:13;12.90;99.90
19292;DHT22;9779;51.756;7.450;2022-10-31T09:20:40;13.00;99.90
19292;DHT22;9779;51.756;7.450;2022-10-31T09:23:11;13.00;99.90
19292;DHT22;9779;51.756;7.450;2022-10-31T09:25:37;13.00;99.90
19292;DHT22;9779;51.756;7.450;2022-10-31T09:28:05;13.10;99.90
19292;DHT22;9779;51.756;7.450;2022-10-31T09:30:33;13.10;99.90
19292;DHT22;9779;51.756;7.450;2022-10-31T09:33:01;13.20;99.90
19292;DHT22;9779;51.756;7.450;2022-10-31T09:35:27;13.20;99.90
19292;DHT22;9779;51.756;7.450;2022-10-31T09:37:57;13.50;99.90
19292;DHT22;9779;51.756;7.450;2022-10-31T09:40:37;13.50;99.90
19292;DHT22;9779;51.756;7.450;2022-10-31T09:43:13;13.50;99.90
19292;DHT22;9779;51.756;7.450;2022-10-31T09:51:05;13.70;99.90
19292;DHT22;9779;51.756;7.450;2022-10-31T09:53:54;13.80;99.90
19292;DHT22;9779;51.756;7.450;2022-10-31T09:56:23;13.90;99.90
19292;DHT22;9779;51.756;7.450;2022-10-31T09:59:00;14.10;99.90
19292;DHT22;9779;51.756;7.450;2022-10-31T10:01:43;14.10;99.90
19292;DHT22;9779;51.756;7.450;2022-10-31T10:04:34;14.20;99.90
19292;DHT22;9779;51.756;7.450;2022-10-31T10:09:37;14.40;99.90
19292;DHT22;9779;51.756;7.450;2022-10-31T10:18:26;14.60;99.90
19292;DHT22;9779;51.756;7.450;2022-10-31T10:21:09;14.60;99.90
19292;DHT22;9779;51.756;7.450;2022-10-31T10:26:15;14.70;99.90
19292;DHT22;9779;51.756;7.450;2022-10-31T10:28:49;14.80;99.90
19292;DHT22;9779;51.756;7.450;2022-10-31T10:31:18;14.90;99.90
19292;DHT22;9779;51.756;7.450;2022-10-31T10:37:22;15.00;99.90
19292;DHT22;9779;51.756;7.450;2022-10-31T10:39:44;15.10;99.90
19292;DHT22;9779;51.756;7.450;2022-10-31T10:42:13;15.20;99.90
19292;DHT22;9779;51.756;7.450;2022-10-31T10:44:58;15.20;99.90
19292;DHT22;9779;51.756;7.450;2022-10-31T10:47:46;15.20;99.90
19292;DHT22;9779;51.756;7.450;2022-10-31T10:50:20;15.30;99.90
19292;DHT22;9779;51.756;7.450;2022-10-31T10:58:01;15.50;99.90
19292;DHT22;9779;51.756;7.450;2022-10-31T11:00:34;15.60;99.90
19292;DHT22;9779;51.756;7.450;2022-10-31T11:03:01;15.70;99.90
19292;DHT22;9779;51.756;7.450;2022-10-31T11:05:43;15.70;99.90
19292;DHT22;9779;51.756;7.450;2022-10-31T11:08:10;15.70;99.90
19292;DHT22;9779;51.756;7.450;2022-10-31T11:10:36;15.80;99.90
19292;DHT22;9779;51.756;7.450;2022-10-31T11:15:50;15.90;99.90
19292;DHT22;9779;51.756;7.450;2022-10-31T11:18:30;16.00;99.90
19292;DHT22;9779;51.756;7.450;2022-10-31T11:20:58;16.10;99.90
19292;DHT22;9779;51.756;7.450;2022-10-31T11:23:25;16.10;99.90
19292;DHT22;9779;51.756;7.450;2022-10-31T11:26:03;16.20;99.90
19292;DHT22;9779;51.756;7.450;2022-10-31T11:28:30;16.30;99.90
19292;DHT22;9779;51.756;7.450;2022-10-31T11:30:59;16.30;99.90
19292;DHT22;9779;51.756;7.450;2022-10-31T11:33:45;16.40;99.90
19292;DHT22;9779;51.756;7.450;2022-10-31T11:36:22;16.40;99.90
19292;DHT22;9779;51.756;7.450;2022-10-31T11:38:48;16.40;99.90
19292;DHT22;9779;51.756;7.450;2022-10-31T11:41:24;16.40;99.90
19292;DHT22;9779;51.756;7.450;2022-10-31T11:44:03;16.40;99.90
19292;DHT22;9779;51.756;7.450;2022-10-31T11:46:34;16.40;99.90
19292;DHT22;9779;51.756;7.450;2022-10-31T11:49:03;16.40;99.90
19292;DHT22;9779;51.756;7.450;2022-10-31T11:51:32;16.40;99.90
19292;DHT22;9779;51.756;7.450;2022-10-31T11:54:00;16.40;99.90
19292;DHT22;9779;51.756;7.450;2022-10-31T11:56:36;16.40;99.90
19292;DHT22;9779;51.756;7.450;2022-10-31T11:59:12;16.40;99.90
19292;DHT22;9779;51.756;7.450;2022-10-31T12:01:40;16.40;99.90
19292;DHT22;9779;51.756;7.450;2022-10-31T12:04:12;16.50;99.90
19292;DHT22;9779;51.756;7.450;2022-10-31T12:06:43;16.50;99.90
19292;DHT22;9779;51.756;7.450;2022-10-31T12:17:15;16.70;99.90
19292;DHT22;9779;51.756;7.450;2022-10-31T12:20:03;16.70;99.90
19292;DHT22;9779;51.756;7.450;2022-10-31T12:25:21;16.80;99.90
19292;DHT22;9779;51.756;7.450;2022-10-31T12:30:56;17.00;99.90
19292;DHT22;9779;51.756;7.450;2022-10-31T12:42:36;17.10;99.90
19292;DHT22;9779;51.756;7.450;2022-10-31T12:45:01;17.20;99.90
19292;DHT22;9779;51.756;7.450;2022-10-31T12:47:34;17.20;99.90
19292;DHT22;9779;51.756;7.450;2022-10-31T12:58:38;17.20;99.90
19292;DHT22;9779;51.756;7.450;2022-10-31T13:01:15;17.20;99.90
19292;DHT22;9779;51.756;7.450;2022-10-31T13:03:57;17.20;99.90
19292;DHT22;9779;51.756;7.450;2022-10-31T13:06:32;17.30;99.90
19292;DHT22;9779;51.756;7.450;2022-10-31T13:09:01;17.20;99.90
19292;DHT22;9779;51.756;7.450;2022-10-31T13:11:32;17.20;99.90
19292;DHT22;9779;51.756;7.450;2022-10-31T13:14:11;17.20;99.90
19292;DHT22;9779;51.756;7.450;2022-10-31T13:16:46;17.30;99.90
19292;DHT22;9779;51.756;7.450;2022-10-31T13:22:04;17.30;99.90
19292;DHT22;9779;51.756;7.450;2022-10-31T13:24:53;17.40;99.90
19292;DHT22;9779;51.756;7.450;2022-10-31T13:27:37;17.40;99.90
19292;DHT22;9779;51.756;7.450;2022-10-31T13:30:18;17.40;99.90
19292;DHT22;9779;51.756;7.450;2022-10-31T13:32:57;17.40;99.90
19292;DHT22;9779;51.756;7.450;2022-10-31T13:38:38;17.50;99.90
19292;DHT22;9779;51.756;7.450;2022-10-31T13:44:01;17.50;99.90
19292;DHT22;9779;51.756;7.450;2022-10-31T13:48:56;17.50;99.90
19292;DHT22;9779;51.756;7.450;2022-10-31T13:51:29;17.50;99.90
19292;DHT22;9779;51.756;7.450;2022-10-31T14:01:35;17.50;99.90
19292;DHT22;9779;51.756;7.450;2022-10-31T14:04:07;17.50;99.90
19292;DHT22;9779;51.756;7.450;2022-10-31T14:09:36;17.40;99.90
19292;DHT22;9779;51.756;7.450;2022-10-31T14:12:13;17.40;99.90
19292;DHT22;9779;51.756;7.450;2022-10-31T14:14:49;17.40;99.90
19292;DHT22;9779;51.756;7.450;2022-10-31T14:17:20;17.40;99.90
19292;DHT22;9779;51.756;7.450;2022-10-31T14:20:42;17.40;99.90
19292;DHT22;9779;51.756;7.450;2022-10-31T14:22:42;17.40;99.90
19292;DHT22;9779;51.756;7.450;2022-10-31T14:25:29;17.40;99.90
19292;DHT22;9779;51.756;7.450;2022-10-31T14:27:55;17.40;99.90
19292;DHT22;9779;51.756;7.450;2022-10-31T14:30:24;17.40;99.90
19292;DHT22;9779;51.756;7.450;2022-10-31T14:33:01;17.40;99.90
19292;DHT22;9779;51.756;7.450;2022-10-31T14:35:50;17.40;99.90
19292;DHT22;9779;51.756;7.450;2022-10-31T14:41:27;17.40;99.90
19292;DHT22;9779;51.756;7.450;2022-10-31T14:47:28;17.30;99.90
19292;DHT22;9779;51.756;7.450;2022-10-31T14:52:48;17.30;99.90
19292;DHT22;9779;51.756;7.450;2022-10-31T14:55:16;17.30;99.90
19292;DHT22;9779;51.756;7.450;2022-10-31T14:57:56;17.30;99.90
19292;DHT22;9779;51.756;7.450;2022-10-31T15:00:23;17.40;99.90
19292;DHT22;9779;51.756;7.450;2022-10-31T15:03:16;17.40;99.90
19292;DHT22;9779;51.756;7.450;2022-10-31T15:05:51;17.40;99.90
19292;DHT22;9779;51.756;7.450;2022-10-31T15:08:34;17.40;99.90
19292;DHT22;9779;51.756;7.450;2022-10-31T15:11:13;17.40;99.90
19292;DHT22;9779;51.756;7.450;2022-10-31T15:13:55;17.40;99.90
19292;DHT22;9779;51.756;7.450;2022-10-31T15:16:24;17.40;99.90
19292;DHT22;9779;51.756;7.450;2022-10-31T15:18:56;17.40;99.90
19292;DHT22;9779;51.756;7.450;2022-10-31T15:21:25;17.40;99.90
19292;DHT22;9779;51.756;7.450;2022-10-31T15:23:53;17.40;99.90
19292;DHT22;9779;51.756;7.450;2022-10-31T15:26:21;17.30;99.90
19292;DHT22;9779;51.756;7.450;2022-10-31T15:28:58;17.30;99.90
19292;DHT22;9779;51.756;7.450;2022-10-31T15:31:24;17.30;99.90
19292;DHT22;9779;51.756;7.450;2022-10-31T15:33:50;17.20;99.90
19292;DHT22;9779;51.756;7.450;2022-10-31T15:36:24;17.20;99.90
19292;DHT22;9779;51.756;7.450;2022-10-31T15:38:51;17.10;99.90
19292;DHT22;9779;51.756;7.450;2022-10-31T15:41:35;17.10;99.90
19292;DHT22;9779;51.756;7.450;2022-10-31T15:44:20;17.10;99.90
19292;DHT22;9779;51.756;7.450;2022-10-31T15:46:55;17.10;99.90
19292;DHT22;9779;51.756;7.450;2022-10-31T15:49:42;17.00;99.90
19292;DHT22;9779;51.756;7.450;2022-10-31T15:52:21;17.10;99.90
19292;DHT22;9779;51.756;7.450;2022-10-31T15:54:51;17.10;99.90
19292;DHT22;9779;51.756;7.450;2022-10-31T15:57:18;17.10;99.90
19292;DHT22;9779;51.756;7.450;2022-10-31T15:59:47;17.10;99.90
19292;DHT22;9779;51.756;7.450;2022-10-31T16:02:14;17.10;99.90
19292;DHT22;9779;51.756;7.450;2022-10-31T16:04:52;17.10;99.90
19292;DHT22;9779;51.756;7.450;2022-10-31T16:07:19;17.10;99.90
19292;DHT22;9779;51.756;7.450;2022-10-31T16:10:01;17.10;99.90
19292;DHT22;9779;51.756;7.450;2022-10-31T16:12:42;17.10;99.90
19292;DHT22;9779;51.756;7.450;2022-10-31T16:15:17;17.10;99.90
19292;DHT22;9779;51.756;7.450;2022-10-31T16:17:45;17.10;99.90
19292;DHT22;9779;51.756;7.450;2022-10-31T16:20:25;17.10;99.90
19292;DHT22;9779;51.756;7.450;2022-10-31T16:22:53;17.00;99.90
19292;DHT22;9779;51.756;7.450;2022-10-31T16:25:26;16.90;99.90
19292;DHT22;9779;51.756;7.450;2022-10-31T16:27:53;16.80;99.90
19292;DHT22;9779;51.756;7.450;2022-10-31T16:30:36;16.80;99.90
19292;DHT22;9779;51.756;7.450;2022-10-31T16:33:03;16.70;99.90
19292;DHT22;9779;51.756;7.450;2022-10-31T16:35:37;16.70;99.90
19292;DHT22;9779;51.756;7.450;2022-10-31T16:38:04;16.60;99.90
19292;DHT22;9779;51.756;7.450;2022-10-31T16:40:30;16.60;99.90
19292;DHT22;9779;51.756;7.450;2022-10-31T16:42:58;16.50;99.90
19292;DHT22;9779;51.756;7.450;2022-10-31T16:45:27;16.50;99.90
19292;DHT22;9779;51.756;7.450;2022-10-31T16:47:53;16.40;99.90
19292;DHT22;9779;51.756;7.450;2022-10-31T16:50:26;16.40;99.90
19292;DHT22;9779;51.756;7.450;2022-10-31T16:52:52;16.40;99.90
19292;DHT22;9779;51.756;7.450;2022-10-31T16:55:19;16.40;99.90
19292;DHT22;9779;51.756;7.450;2022-10-31T16:57:48;16.30;99.90
19292;DHT22;9779;51.756;7.450;2022-10-31T17:00:16;16.30;99.90
19292;DHT22;9779;51.756;7.450;2022-10-31T17:02:42;16.20;99.90
19292;DHT22;9779;51.756;7.450;2022-10-31T17:05:16;16.30;99.90
19292;DHT22;9779;51.756;7.450;2022-10-31T17:07:42;16.20;99.90
19292;DHT22;9779;51.756;7.450;2022-10-31T17:10:09;16.20;99.90
19292;DHT22;9779;51.756;7.450;2022-10-31T17:12:35;16.20;99.90
19292;DHT22;9779;51.756;7.450;2022-10-31T17:15:02;16.20;99.90
19292;DHT22;9779;51.756;7.450;2022-10-31T17:17:27;16.20;99.90
19292;DHT22;9779;51.756;7.450;2022-10-31T17:19:53;16.10;99.90
19292;DHT22;9779;51.756;7.450;2022-10-31T17:22:18;16.10;99.90
19292;DHT22;9779;51.756;7.450;2022-10-31T17:24:44;16.10;99.90
19292;DHT22;9779;51.756;7.450;2022-10-31T17:27:09;16.00;99.90
19292;DHT22;9779;51.756;7.450;2022-10-31T17:29:35;15.90;99.90
19292;DHT22;9779;51.756;7.450;2022-10-31T17:32:01;15.90;99.90
19292;DHT22;9779;51.756;7.450;2022-10-31T17:34:30;15.90;99.90
19292;DHT22;9779;51.756;7.450;2022-10-31T17:36:55;15.80;99.90
19292;DHT22;9779;51.756;7.450;2022-10-31T17:39:21;15.80;99.90
19292;DHT22;9779;51.756;7.450;2022-10-31T17:41:50;15.80;99.90
19292;DHT22;9779;51.756;7.450;2022-10-31T17:44:16;15.70;99.90
19292;DHT22;9779;51.756;7.450;2022-10-31T17:46:42;15.70;99.90
19292;DHT22;9779;51.756;7.450;2022-10-31T17:49:10;15.60;99.90
19292;DHT22;9779;51.756;7.450;2022-10-31T17:51:36;15.60;99.90
19292;DHT22;9779;51.756;7.450;2022-10-31T17:54:02;15.60;99.90
19292;DHT22;9779;51.756;7.450;2022-10-31T17:56:27;15.50;99.90
19292;DHT22;9779;51.756;7.450;2022-10-31T17:58:53;15.50;99.90
19292;DHT22;9779;51.756;7.450;2022-10-31T18:01:21;15.40;99.90
19292;DHT22;9779;51.756;7.450;2022-10-31T18:03:46;15.40;99.90